메인 페이지
METAR-TAF:

METAR-TAF

공항 :

이즈미르, 터키

위도: 38-16N, 경도: 027-09E, 고도: 125m

현재 날씨관측

예보는 18분 전, 16:20시(UTC)에 발표되었습니다.
북동6kt
온도 21°C
습도 56%
기압 1018 hPa
시정 10km 이상
고도 3000ft 상공 구름 보통
고도 10000ft 상공 구름 많음

METAR: LTBJ 211620Z 04006KT 9999 SCT030 BKN100 21/12 Q1018 NOSIG

시각: 19:38 (16:38 UTC)

예보

예보는 5 시간 58분 전, 10:40시(UTC)에 발표되었습니다.
예보 대상 시간: 21일 12시부터 22일 12시까지 (UTC)
여러 방향의 바람 2kt
시정 10km 이상
고도 3000ft 상공 구름 보통
고도 10000ft 상공 구름 많음
일시적
21일 15시부터 21일 18시까지 (UTC)
12kt
약한소나기

TAF: LTBJ 211040Z 2112/2212 VRB02KT 9999 SCT030 BKN100 TEMPO 2115/2118 36012KT -SHRA

4,000개 이상의 공항 관측 자료 및 예보 (METAR 및 TAF 보고).

지도상에서 검색 가능한 기상관측소가 노란 점과 빨간 점으로 표시되어 있습니다.

기상관측소 명을 보려면 표시 위로 마우스를 이동하세요.

날씨 관측과 예보를 보려면 클릭하세요.

지도 변경 : 확대하려면 엑스 표시가 있는 녹색 버튼, 축소하려면 빼기 표시가 있는 녹색 버튼, 다음 페이지의 지도를 보려면 녹색 화살표를 클릭하세요.


METAR-TAF: